»·PEaware :: N448RA KBFL-KSMX

N448RA :: KBFL-KSMX

FLIGHT INFORMATION

Flight Status: Arrived
Operator: Privately registered:
United States
More flights under this callsign
Pilot: Scott M. (16181)
Aircraft: Unknown
(DA62)
More flights by this aircraft type
Origin: KBFL Meadows
United States
Destination: KSMX Santa Maria Pub/Capt Hancock
United States
More flights between these airports :: More routes between these airports
Route:
File this flight plan on PilotEdge
Remarks:
Altitude:
(Current/Filed)
8,500ft
Speed:
(Current/Filed)
180kts
Departed: 22-Jun-18 05:24 PM
Arrived: 22-Jun-18 05:59 PM
Distance/Time
Traveled:
75nm/0:35
Distance/Time
To Go:
Arrived

Flight Plot

Page will automatically refresh every two minutes.


Map Options




Map Legend


Flown Route
Filed Route
Departure Airport
Arrival Airport
Navaid (VOR, NDB)
Fix

Horizontal Profiles

Position Reports

Time Latitude Longitude Heading Altitude Ground
Speed
22-Jun-18 17:16 35.429368 -119.046105 226 494ft 0kts
22-Jun-18 17:17 35.429368 -119.046105 226 494ft 0kts
22-Jun-18 17:18 35.429368 -119.046105 226 494ft 0kts
22-Jun-18 17:19 35.429368 -119.046105 226 494ft 0kts
22-Jun-18 17:20 35.429368 -119.046105 226 494ft 0kts
22-Jun-18 17:21 35.427831 -119.046649 136 486ft 17kts
22-Jun-18 17:22 35.425765 -119.044727 216 480ft 0kts
22-Jun-18 17:23 35.425765 -119.044727 216 480ft 0kts
22-Jun-18 17:24 35.427140 -119.048129 314 479ft 59kts
22-Jun-18 17:25 35.439953 -119.062902 313 950ft 101kts
22-Jun-18 17:26 35.438461 -119.094688 220 1907ft 127kts
22-Jun-18 17:27 35.411563 -119.123287 239 2906ft 125kts
22-Jun-18 17:28 35.395904 -119.159438 248 3885ft 117kts
22-Jun-18 17:29 35.382716 -119.194301 248 4816ft 117kts
22-Jun-18 17:30 35.368794 -119.231436 248 5721ft 122kts
22-Jun-18 17:31 35.354513 -119.269521 247 6622ft 124kts
22-Jun-18 17:32 35.339977 -119.308176 247 7520ft 125kts
22-Jun-18 17:33 35.325265 -119.347289 247 8411ft 127kts
22-Jun-18 17:34 35.308181 -119.392642 247 8484ft 157kts
22-Jun-18 17:35 35.289453 -119.442266 247 8482ft 163kts
22-Jun-18 17:36 35.270299 -119.492961 247 8482ft 166kts
22-Jun-18 17:37 35.250885 -119.544257 247 8481ft 167kts
22-Jun-18 17:38 35.231448 -119.595515 246 8481ft 167kts
22-Jun-18 17:39 35.211734 -119.647289 246 8472ft 169kts
22-Jun-18 17:40 35.192305 -119.698334 246 8473ft 170kts
22-Jun-18 17:41 35.171976 -119.751741 246 8472ft 173kts
22-Jun-18 17:42 35.151719 -119.804813 246 8537ft 174kts
22-Jun-18 17:43 35.131141 -119.858698 246 8528ft 175kts
22-Jun-18 17:44 35.110569 -119.912464 246 8537ft 175kts
22-Jun-18 17:45 35.090062 -119.966121 246 8537ft 176kts
22-Jun-18 17:46 35.069472 -120.019739 246 8396ft 167kts
22-Jun-18 17:47 35.050597 -120.068801 246 7888ft 158kts
22-Jun-18 17:48 35.032012 -120.117048 246 7224ft 152kts
22-Jun-18 17:49 35.014148 -120.163351 246 6333ft 147kts
22-Jun-18 17:50 34.997136 -120.207402 247 5433ft 141kts
22-Jun-18 17:51 34.980573 -120.250213 247 4573ft 135kts
22-Jun-18 17:52 34.963981 -120.289799 245 4017ft 132kts
22-Jun-18 17:53 34.947592 -120.332938 251 3057ft 146kts
22-Jun-18 17:54 34.938038 -120.367511 257 2532ft 97kts
22-Jun-18 17:55 34.929987 -120.398276 254 1912ft 93kts
22-Jun-18 17:56 34.917597 -120.425966 231 1311ft 96kts
22-Jun-18 17:57 34.893675 -120.428954 168 964ft 94kts
22-Jun-18 17:58 34.886630 -120.438321 313 657ft 89kts
22-Jun-18 17:59 34.897703 -120.450010 0 265ft 0kts
22-Jun-18 18:00 34.897703 -120.450010 0 265ft 0kts
22-Jun-18 18:01 34.897703 -120.450010 0 265ft 0kts
22-Jun-18 18:02 34.897703 -120.450010 0 265ft 0kts
22-Jun-18 18:03 34.897703 -120.450010 0 265ft 0kts
22-Jun-18 18:04 34.897703 -120.450010 0 265ft 0kts
22-Jun-18 18:05 34.896588 -120.447817 127 265ft 11kts
22-Jun-18 18:06 34.897049 -120.446282 132 265ft 0kts

Navigation Log

Ident Type
1. KBFL Airport
2. KSMX Airport